Impacts TAF Board INFO
FOR SITUATIONAL AWARENESS. NOT TO BE USED FOR FLIGHT PLANNING PURPOSES.
IDs:

KPHX - Phoenix/Sky Harbor, AZ, US

Issued at 2044 UTC 14 Aug 2018
Updated at 2201 UTC 14 Aug 2018
Potential Impact None Slight Moderate High
Time2151Z 14/23Z 15/00Z 15/01Z 15/02Z 15/03Z 15/04Z 15/05Z 15/06Z 15/07Z 15/08Z 15/09Z 15/10Z 15/11Z>>
Type OBS PRVL PRVL PRVL PRVL PRVL
  [TEMP]  
PRVL
  [TEMP]  
PRVL PRVL PRVL PRVL PRVL PRVL PRVL
VIS 10 >6 >6 >6 >6 >6
  [3]  
>6
  [3]  
>6 >6 >6 >6 >6 >6 >6
CIG -- -- -- -- -- 120
  [80]  
120
  [80]  
120 120 120 120 120 120 120
Cover FEW SCT SCT SCT SCT OVC
  [OVC]  
OVC
  [OVC]  
OVC OVC OVC OVC OVC OVC OVC
FltCat VFR VFR VFR VFR VFR VFR
  [MVFR]  
VFR
  [MVFR]  
VFR VFR VFR VFR VFR VFR VFR
WX -- -- -- -- -- VCTS
  [+TSRA]  
VCTS
  [+TSRA]  
VCTS VCTS VCSH VCSH VCSH VCSH VCSH
WDir 290 290 290 290 290 50
[50]
50
[50]
50 50 160 160 160 160 160
WSpd 10 12 12 12 12 20
  [35]  
20
  [35]  
20 20 10 10 10 10 10
WGst 18 18 18 18 18 30
  [45]  
30
  [45]  
30 30 -- -- -- -- --

Raw TAF
KPHX 142044Z 1421/1524 29012G18KT P6SM FEW120 SCT180
  FM150300 05020G30KT P6SM VCTS SCT080CB BKN120 OVC180
  TEMPO 1503/1505 05035G45KT 3SM +TSRA BKN080CB OVC120
  FM150700 16010KT P6SM VCSH FEW080 BKN120 OVC200
  FM151900 27010KT P6SM FEW060 SCT120 BKN250


Raw METAR
KPHX 142151Z 29010G18KT 10SM FEW075 FEW180 39/17 A2974 RMK AO2 SLP048 CB DSNT NW-NE T03890167
KPHX 142051Z COR 24011KT 10SM FEW075 FEW180 38/17 A2977 RMK AO2 SLP059 CB DSNT NE AND NW T03780167 58026
KPHX 141951Z 29008KT 10SM FEW075 FEW180 37/18 A2980 RMK AO2 SLP070 CB DSNT N T03670178

METAR Board
Radar Display
Forecast Discussion

FOR SITUATIONAL AWARENESS. NOT TO BE USED FOR FLIGHT PLANNING PURPOSES.